sensor_id;sensor_type;location;lat;lon;timestamp;P1;durP1;ratioP1;P2;durP2;ratioP2
51800;SDS011;37855;53.204;6.568;2023-07-29T00:01:01;9.10;;;5.45;;
51800;SDS011;37855;53.204;6.568;2023-07-29T00:03:26;8.43;;;4.77;;
51800;SDS011;37855;53.204;6.568;2023-07-29T00:05:54;8.95;;;5.57;;
51800;SDS011;37855;53.204;6.568;2023-07-29T00:08:20;9.20;;;5.27;;
51800;SDS011;37855;53.204;6.568;2023-07-29T00:10:46;10.85;;;5.35;;
51800;SDS011;37855;53.204;6.568;2023-07-29T00:13:12;9.13;;;5.60;;
51800;SDS011;37855;53.204;6.568;2023-07-29T00:15:37;11.48;;;6.47;;
51800;SDS011;37855;53.204;6.568;2023-07-29T00:18:03;8.93;;;5.63;;
51800;SDS011;37855;53.204;6.568;2023-07-29T00:20:29;9.35;;;5.82;;
51800;SDS011;37855;53.204;6.568;2023-07-29T00:22:54;9.77;;;5.83;;
51800;SDS011;37855;53.204;6.568;2023-07-29T00:25:20;9.93;;;5.50;;
51800;SDS011;37855;53.204;6.568;2023-07-29T00:27:46;12.30;;;5.93;;
51800;SDS011;37855;53.204;6.568;2023-07-29T00:30:12;10.77;;;6.03;;
51800;SDS011;37855;53.204;6.568;2023-07-29T00:32:38;11.57;;;5.90;;
51800;SDS011;37855;53.204;6.568;2023-07-29T00:35:04;9.83;;;5.67;;
51800;SDS011;37855;53.204;6.568;2023-07-29T00:37:30;10.15;;;6.13;;
51800;SDS011;37855;53.204;6.568;2023-07-29T00:39:56;10.03;;;5.87;;
51800;SDS011;37855;53.204;6.568;2023-07-29T00:42:22;9.90;;;5.85;;
51800;SDS011;37855;53.204;6.568;2023-07-29T00:44:47;12.43;;;5.95;;
51800;SDS011;37855;53.204;6.568;2023-07-29T00:47:13;9.93;;;6.27;;
51800;SDS011;37855;53.204;6.568;2023-07-29T00:49:41;9.45;;;5.55;;
51800;SDS011;37855;53.204;6.568;2023-07-29T00:52:10;9.07;;;6.18;;
51800;SDS011;37855;53.204;6.568;2023-07-29T00:54:38;9.65;;;6.18;;
51800;SDS011;37855;53.204;6.568;2023-07-29T00:57:04;12.33;;;6.80;;
51800;SDS011;37855;53.204;6.568;2023-07-29T00:59:31;11.25;;;6.28;;
51800;SDS011;37855;53.204;6.568;2023-07-29T01:01:58;11.10;;;6.40;;
51800;SDS011;37855;53.204;6.568;2023-07-29T01:04:24;10.55;;;6.25;;
51800;SDS011;37855;53.204;6.568;2023-07-29T01:06:57;12.40;;;6.40;;
51800;SDS011;37855;53.204;6.568;2023-07-29T01:09:36;9.48;;;6.20;;
51800;SDS011;37855;53.204;6.568;2023-07-29T01:17:42;9.70;;;6.45;;
51800;SDS011;37855;53.204;6.568;2023-07-29T01:20:13;10.70;;;6.13;;
51800;SDS011;37855;53.204;6.568;2023-07-29T01:22:40;10.13;;;6.40;;
51800;SDS011;37855;53.204;6.568;2023-07-29T01:25:07;10.38;;;6.85;;
51800;SDS011;37855;53.204;6.568;2023-07-29T01:27:32;11.90;;;6.73;;
51800;SDS011;37855;53.204;6.568;2023-07-29T01:29:58;11.32;;;6.85;;
51800;SDS011;37855;53.204;6.568;2023-07-29T01:32:32;9.02;;;6.30;;
51800;SDS011;37855;53.204;6.568;2023-07-29T01:35:26;9.20;;;5.70;;
51800;SDS011;37855;53.204;6.568;2023-07-29T01:38:04;11.57;;;6.85;;
51800;SDS011;37855;53.204;6.568;2023-07-29T01:40:32;10.70;;;6.25;;
51800;SDS011;37855;53.204;6.568;2023-07-29T01:43:02;8.95;;;6.20;;
51800;SDS011;37855;53.204;6.568;2023-07-29T01:45:28;9.25;;;6.13;;
51800;SDS011;37855;53.204;6.568;2023-07-29T01:47:56;9.70;;;6.13;;
51800;SDS011;37855;53.204;6.568;2023-07-29T01:50:22;9.52;;;6.00;;
51800;SDS011;37855;53.204;6.568;2023-07-29T01:52:48;11.53;;;6.20;;
51800;SDS011;37855;53.204;6.568;2023-07-29T01:55:14;8.73;;;5.87;;
51800;SDS011;37855;53.204;6.568;2023-07-29T01:57:39;11.83;;;6.60;;
51800;SDS011;37855;53.204;6.568;2023-07-29T02:00:05;10.33;;;6.40;;
51800;SDS011;37855;53.204;6.568;2023-07-29T02:02:31;11.70;;;6.70;;
51800;SDS011;37855;53.204;6.568;2023-07-29T02:04:57;9.73;;;6.27;;
51800;SDS011;37855;53.204;6.568;2023-07-29T02:07:23;10.25;;;6.63;;
51800;SDS011;37855;53.204;6.568;2023-07-29T02:09:51;10.88;;;6.50;;
51800;SDS011;37855;53.204;6.568;2023-07-29T02:12:17;10.40;;;6.30;;
51800;SDS011;37855;53.204;6.568;2023-07-29T02:14:42;8.85;;;6.13;;
51800;SDS011;37855;53.204;6.568;2023-07-29T02:17:08;11.33;;;6.43;;
51800;SDS011;37855;53.204;6.568;2023-07-29T02:19:34;9.23;;;6.30;;
51800;SDS011;37855;53.204;6.568;2023-07-29T02:22:00;9.70;;;6.23;;
51800;SDS011;37855;53.204;6.568;2023-07-29T02:24:25;10.13;;;6.65;;
51800;SDS011;37855;53.204;6.568;2023-07-29T02:26:51;12.13;;;6.70;;
51800;SDS011;37855;53.204;6.568;2023-07-29T02:29:17;10.45;;;6.78;;
51800;SDS011;37855;53.204;6.568;2023-07-29T02:31:42;11.50;;;6.73;;
51800;SDS011;37855;53.204;6.568;2023-07-29T02:34:09;10.48;;;6.22;;
51800;SDS011;37855;53.204;6.568;2023-07-29T02:36:34;9.93;;;6.60;;
51800;SDS011;37855;53.204;6.568;2023-07-29T02:39:00;10.45;;;6.65;;
51800;SDS011;37855;53.204;6.568;2023-07-29T02:41:26;11.20;;;6.70;;
51800;SDS011;37855;53.204;6.568;2023-07-29T02:43:51;10.88;;;6.85;;
51800;SDS011;37855;53.204;6.568;2023-07-29T02:46:17;10.53;;;6.53;;
51800;SDS011;37855;53.204;6.568;2023-07-29T02:48:44;10.60;;;6.40;;
51800;SDS011;37855;53.204;6.568;2023-07-29T02:51:10;10.48;;;6.35;;
51800;SDS011;37855;53.204;6.568;2023-07-29T02:53:35;11.30;;;6.80;;
51800;SDS011;37855;53.204;6.568;2023-07-29T02:56:04;9.60;;;6.50;;
51800;SDS011;37855;53.204;6.568;2023-07-29T02:58:31;12.35;;;6.45;;
51800;SDS011;37855;53.204;6.568;2023-07-29T03:01:00;10.30;;;6.20;;
51800;SDS011;37855;53.204;6.568;2023-07-29T03:03:27;10.00;;;6.38;;
51800;SDS011;37855;53.204;6.568;2023-07-29T03:06:05;11.20;;;6.57;;
51800;SDS011;37855;53.204;6.568;2023-07-29T03:08:32;12.68;;;6.90;;
51800;SDS011;37855;53.204;6.568;2023-07-29T03:10:58;10.77;;;6.57;;
51800;SDS011;37855;53.204;6.568;2023-07-29T03:13:29;12.80;;;6.97;;
51800;SDS011;37855;53.204;6.568;2023-07-29T03:16:04;12.73;;;6.68;;
51800;SDS011;37855;53.204;6.568;2023-07-29T03:18:33;11.03;;;5.73;;
51800;SDS011;37855;53.204;6.568;2023-07-29T03:20:59;11.00;;;6.38;;
51800;SDS011;37855;53.204;6.568;2023-07-29T03:23:25;10.90;;;5.85;;
51800;SDS011;37855;53.204;6.568;2023-07-29T03:25:51;10.77;;;5.93;;
51800;SDS011;37855;53.204;6.568;2023-07-29T03:28:18;10.55;;;6.38;;
51800;SDS011;37855;53.204;6.568;2023-07-29T03:30:43;10.90;;;6.43;;
51800;SDS011;37855;53.204;6.568;2023-07-29T03:33:09;10.83;;;6.40;;
51800;SDS011;37855;53.204;6.568;2023-07-29T03:35:35;9.82;;;6.03;;
51800;SDS011;37855;53.204;6.568;2023-07-29T03:38:00;11.40;;;6.53;;
51800;SDS011;37855;53.204;6.568;2023-07-29T03:40:26;12.23;;;6.68;;
51800;SDS011;37855;53.204;6.568;2023-07-29T03:42:52;10.67;;;6.33;;
51800;SDS011;37855;53.204;6.568;2023-07-29T03:45:17;10.70;;;6.30;;
51800;SDS011;37855;53.204;6.568;2023-07-29T03:47:43;12.40;;;6.10;;
51800;SDS011;37855;53.204;6.568;2023-07-29T03:50:09;12.20;;;6.07;;
51800;SDS011;37855;53.204;6.568;2023-07-29T03:52:34;10.60;;;6.10;;
51800;SDS011;37855;53.204;6.568;2023-07-29T03:55:00;9.70;;;6.03;;
51800;SDS011;37855;53.204;6.568;2023-07-29T03:57:26;12.00;;;6.30;;
51800;SDS011;37855;53.204;6.568;2023-07-29T03:59:52;12.68;;;6.38;;
51800;SDS011;37855;53.204;6.568;2023-07-29T04:02:17;11.60;;;6.30;;
51800;SDS011;37855;53.204;6.568;2023-07-29T04:04:43;11.53;;;6.13;;
51800;SDS011;37855;53.204;6.568;2023-07-29T04:07:12;10.00;;;5.93;;
51800;SDS011;37855;53.204;6.568;2023-07-29T04:09:38;10.10;;;5.78;;
51800;SDS011;37855;53.204;6.568;2023-07-29T04:12:04;10.50;;;6.17;;
51800;SDS011;37855;53.204;6.568;2023-07-29T04:14:29;10.30;;;5.70;;
51800;SDS011;37855;53.204;6.568;2023-07-29T04:16:55;12.00;;;5.50;;
51800;SDS011;37855;53.204;6.568;2023-07-29T04:19:21;11.37;;;5.20;;
51800;SDS011;37855;53.204;6.568;2023-07-29T04:21:47;11.32;;;5.88;;
51800;SDS011;37855;53.204;6.568;2023-07-29T04:24:12;9.57;;;5.40;;
51800;SDS011;37855;53.204;6.568;2023-07-29T04:26:38;11.35;;;5.40;;
51800;SDS011;37855;53.204;6.568;2023-07-29T04:29:04;9.63;;;5.38;;
51800;SDS011;37855;53.204;6.568;2023-07-29T04:31:30;10.40;;;5.20;;
51800;SDS011;37855;53.204;6.568;2023-07-29T04:33:56;9.40;;;5.07;;
51800;SDS011;37855;53.204;6.568;2023-07-29T04:36:21;12.90;;;5.50;;
51800;SDS011;37855;53.204;6.568;2023-07-29T04:38:47;9.77;;;4.87;;
51800;SDS011;37855;53.204;6.568;2023-07-29T04:41:12;8.98;;;4.95;;
51800;SDS011;37855;53.204;6.568;2023-07-29T04:43:38;8.77;;;4.57;;
51800;SDS011;37855;53.204;6.568;2023-07-29T04:46:07;10.32;;;4.70;;
51800;SDS011;37855;53.204;6.568;2023-07-29T04:48:33;8.95;;;4.65;;
51800;SDS011;37855;53.204;6.568;2023-07-29T04:50:59;8.67;;;4.93;;
51800;SDS011;37855;53.204;6.568;2023-07-29T04:53:25;8.52;;;4.22;;
51800;SDS011;37855;53.204;6.568;2023-07-29T04:55:50;8.03;;;4.20;;
51800;SDS011;37855;53.204;6.568;2023-07-29T04:58:16;7.68;;;3.80;;
51800;SDS011;37855;53.204;6.568;2023-07-29T05:00:42;9.30;;;4.07;;
51800;SDS011;37855;53.204;6.568;2023-07-29T05:03:07;8.75;;;4.00;;
51800;SDS011;37855;53.204;6.568;2023-07-29T05:05:33;11.87;;;3.97;;
51800;SDS011;37855;53.204;6.568;2023-07-29T05:07:58;9.60;;;3.72;;
51800;SDS011;37855;53.204;6.568;2023-07-29T05:10:24;7.33;;;3.50;;
51800;SDS011;37855;53.204;6.568;2023-07-29T05:12:50;7.00;;;3.57;;
51800;SDS011;37855;53.204;6.568;2023-07-29T05:15:16;8.85;;;3.00;;
51800;SDS011;37855;53.204;6.568;2023-07-29T05:17:41;7.40;;;3.40;;
51800;SDS011;37855;53.204;6.568;2023-07-29T05:20:07;7.87;;;3.20;;
51800;SDS011;37855;53.204;6.568;2023-07-29T05:22:33;7.10;;;3.38;;
51800;SDS011;37855;53.204;6.568;2023-07-29T05:24:59;6.57;;;3.40;;
51800;SDS011;37855;53.204;6.568;2023-07-29T05:27:25;5.72;;;3.00;;
51800;SDS011;37855;53.204;6.568;2023-07-29T05:29:53;7.53;;;3.10;;
51800;SDS011;37855;53.204;6.568;2023-07-29T05:32:19;6.80;;;2.80;;
51800;SDS011;37855;53.204;6.568;2023-07-29T05:34:45;6.50;;;2.70;;
51800;SDS011;37855;53.204;6.568;2023-07-29T05:37:10;7.53;;;2.50;;
51800;SDS011;37855;53.204;6.568;2023-07-29T05:39:36;7.25;;;2.53;;
51800;SDS011;37855;53.204;6.568;2023-07-29T05:42:02;7.07;;;2.70;;
51800;SDS011;37855;53.204;6.568;2023-07-29T05:44:28;8.20;;;2.72;;
51800;SDS011;37855;53.204;6.568;2023-07-29T05:46:55;5.38;;;2.53;;
51800;SDS011;37855;53.204;6.568;2023-07-29T05:49:21;8.43;;;2.80;;
51800;SDS011;37855;53.204;6.568;2023-07-29T05:51:47;7.03;;;3.30;;
51800;SDS011;37855;53.204;6.568;2023-07-29T05:54:17;8.43;;;2.95;;
51800;SDS011;37855;53.204;6.568;2023-07-29T05:56:43;7.25;;;3.30;;
51800;SDS011;37855;53.204;6.568;2023-07-29T05:59:09;6.10;;;2.70;;
51800;SDS011;37855;53.204;6.568;2023-07-29T06:01:37;5.40;;;2.60;;
51800;SDS011;37855;53.204;6.568;2023-07-29T06:04:03;8.95;;;2.92;;
51800;SDS011;37855;53.204;6.568;2023-07-29T06:06:29;8.70;;;2.63;;
51800;SDS011;37855;53.204;6.568;2023-07-29T06:08:54;7.07;;;2.60;;
51800;SDS011;37855;53.204;6.568;2023-07-29T06:11:20;6.90;;;2.80;;
51800;SDS011;37855;53.204;6.568;2023-07-29T06:13:47;6.90;;;2.72;;
51800;SDS011;37855;53.204;6.568;2023-07-29T06:16:13;8.38;;;2.95;;
51800;SDS011;37855;53.204;6.568;2023-07-29T06:18:39;7.73;;;3.10;;
51800;SDS011;37855;53.204;6.568;2023-07-29T06:21:04;10.53;;;2.90;;
51800;SDS011;37855;53.204;6.568;2023-07-29T06:23:35;7.43;;;3.08;;
51800;SDS011;37855;53.204;6.568;2023-07-29T06:26:01;7.33;;;3.10;;
51800;SDS011;37855;53.204;6.568;2023-07-29T06:28:27;7.15;;;2.90;;
51800;SDS011;37855;53.204;6.568;2023-07-29T06:30:53;8.43;;;3.10;;
51800;SDS011;37855;53.204;6.568;2023-07-29T06:33:22;8.90;;;2.72;;
51800;SDS011;37855;53.204;6.568;2023-07-29T06:35:48;6.33;;;2.70;;
51800;SDS011;37855;53.204;6.568;2023-07-29T06:38:13;7.97;;;2.88;;
51800;SDS011;37855;53.204;6.568;2023-07-29T06:40:39;6.80;;;2.97;;
51800;SDS011;37855;53.204;6.568;2023-07-29T06:43:05;8.13;;;2.92;;
51800;SDS011;37855;53.204;6.568;2023-07-29T06:45:30;5.63;;;2.53;;
51800;SDS011;37855;53.204;6.568;2023-07-29T06:47:56;7.28;;;2.80;;
51800;SDS011;37855;53.204;6.568;2023-07-29T06:50:22;7.27;;;2.67;;
51800;SDS011;37855;53.204;6.568;2023-07-29T06:52:47;6.93;;;2.60;;
51800;SDS011;37855;53.204;6.568;2023-07-29T06:55:13;10.05;;;3.10;;
51800;SDS011;37855;53.204;6.568;2023-07-29T06:57:39;9.40;;;3.10;;
51800;SDS011;37855;53.204;6.568;2023-07-29T07:00:05;9.95;;;3.08;;
51800;SDS011;37855;53.204;6.568;2023-07-29T07:02:31;9.13;;;3.35;;
51800;SDS011;37855;53.204;6.568;2023-07-29T07:04:57;12.03;;;3.20;;
51800;SDS011;37855;53.204;6.568;2023-07-29T07:07:22;11.23;;;3.30;;
51800;SDS011;37855;53.204;6.568;2023-07-29T07:09:48;7.43;;;2.80;;
51800;SDS011;37855;53.204;6.568;2023-07-29T07:12:13;10.85;;;3.25;;
51800;SDS011;37855;53.204;6.568;2023-07-29T07:14:39;7.80;;;2.87;;
51800;SDS011;37855;53.204;6.568;2023-07-29T07:17:05;10.55;;;3.85;;
51800;SDS011;37855;53.204;6.568;2023-07-29T07:19:31;8.67;;;4.10;;
51800;SDS011;37855;53.204;6.568;2023-07-29T07:21:56;9.75;;;3.55;;
51800;SDS011;37855;53.204;6.568;2023-07-29T07:24:22;6.57;;;3.20;;
51800;SDS011;37855;53.204;6.568;2023-07-29T07:26:48;9.48;;;3.22;;
51800;SDS011;37855;53.204;6.568;2023-07-29T07:29:14;7.63;;;2.83;;
51800;SDS011;37855;53.204;6.568;2023-07-29T07:31:40;10.13;;;3.90;;
51800;SDS011;37855;53.204;6.568;2023-07-29T07:34:06;8.77;;;3.22;;
51800;SDS011;37855;53.204;6.568;2023-07-29T07:36:33;6.95;;;2.85;;
51800;SDS011;37855;53.204;6.568;2023-07-29T07:38:58;8.77;;;3.30;;
51800;SDS011;37855;53.204;6.568;2023-07-29T07:41:24;8.52;;;2.92;;
51800;SDS011;37855;53.204;6.568;2023-07-29T07:43:50;8.90;;;3.13;;
51800;SDS011;37855;53.204;6.568;2023-07-29T07:46:15;9.00;;;3.85;;
51800;SDS011;37855;53.204;6.568;2023-07-29T07:48:41;8.47;;;3.43;;
51800;SDS011;37855;53.204;6.568;2023-07-29T07:51:10;8.47;;;3.30;;
51800;SDS011;37855;53.204;6.568;2023-07-29T07:53:37;7.28;;;3.15;;
51800;SDS011;37855;53.204;6.568;2023-07-29T07:56:04;7.50;;;3.20;;
51800;SDS011;37855;53.204;6.568;2023-07-29T07:58:30;11.30;;;3.10;;
51800;SDS011;37855;53.204;6.568;2023-07-29T08:01:03;9.73;;;2.67;;
51800;SDS011;37855;53.204;6.568;2023-07-29T08:03:29;8.77;;;3.10;;
51800;SDS011;37855;53.204;6.568;2023-07-29T08:05:55;11.15;;;3.22;;
51800;SDS011;37855;53.204;6.568;2023-07-29T08:08:21;8.07;;;2.93;;
51800;SDS011;37855;53.204;6.568;2023-07-29T08:10:46;7.97;;;2.90;;
51800;SDS011;37855;53.204;6.568;2023-07-29T08:13:12;8.47;;;3.60;;
51800;SDS011;37855;53.204;6.568;2023-07-29T08:15:38;10.82;;;3.20;;
51800;SDS011;37855;53.204;6.568;2023-07-29T08:18:03;8.97;;;3.43;;
51800;SDS011;37855;53.204;6.568;2023-07-29T08:20:29;9.63;;;3.17;;
51800;SDS011;37855;53.204;6.568;2023-07-29T08:22:55;10.37;;;3.30;;
51800;SDS011;37855;53.204;6.568;2023-07-29T08:25:20;8.67;;;3.23;;
51800;SDS011;37855;53.204;6.568;2023-07-29T08:27:46;8.77;;;3.45;;
51800;SDS011;37855;53.204;6.568;2023-07-29T08:30:11;8.93;;;2.90;;
51800;SDS011;37855;53.204;6.568;2023-07-29T08:32:37;8.70;;;3.10;;
51800;SDS011;37855;53.204;6.568;2023-07-29T08:35:03;9.07;;;3.00;;
51800;SDS011;37855;53.204;6.568;2023-07-29T08:37:29;13.18;;;3.15;;
51800;SDS011;37855;53.204;6.568;2023-07-29T08:39:56;6.18;;;2.42;;
51800;SDS011;37855;53.204;6.568;2023-07-29T08:42:22;7.93;;;2.60;;
51800;SDS011;37855;53.204;6.568;2023-07-29T08:44:51;7.85;;;2.53;;
51800;SDS011;37855;53.204;6.568;2023-07-29T08:47:20;7.45;;;2.92;;
51800;SDS011;37855;53.204;6.568;2023-07-29T08:49:46;7.87;;;2.60;;
51800;SDS011;37855;53.204;6.568;2023-07-29T08:52:12;7.75;;;2.58;;
51800;SDS011;37855;53.204;6.568;2023-07-29T08:54:40;7.95;;;3.30;;
51800;SDS011;37855;53.204;6.568;2023-07-29T08:57:06;7.33;;;2.43;;
51800;SDS011;37855;53.204;6.568;2023-07-29T08:59:32;7.20;;;2.75;;
51800;SDS011;37855;53.204;6.568;2023-07-29T09:01:58;9.43;;;2.67;;
51800;SDS011;37855;53.204;6.568;2023-07-29T09:04:24;6.90;;;2.50;;
51800;SDS011;37855;53.204;6.568;2023-07-29T09:06:50;8.17;;;2.20;;
51800;SDS011;37855;53.204;6.568;2023-07-29T09:09:16;5.55;;;2.33;;
51800;SDS011;37855;53.204;6.568;2023-07-29T09:11:43;8.55;;;2.58;;
51800;SDS011;37855;53.204;6.568;2023-07-29T09:14:09;7.22;;;2.35;;
51800;SDS011;37855;53.204;6.568;2023-07-29T09:16:35;6.07;;;2.30;;
51800;SDS011;37855;53.204;6.568;2023-07-29T09:19:02;6.93;;;2.40;;
51800;SDS011;37855;53.204;6.568;2023-07-29T09:21:28;6.95;;;2.30;;
51800;SDS011;37855;53.204;6.568;2023-07-29T09:23:55;7.55;;;2.30;;
51800;SDS011;37855;53.204;6.568;2023-07-29T09:26:27;7.30;;;2.30;;
51800;SDS011;37855;53.204;6.568;2023-07-29T09:28:54;5.57;;;2.00;;
51800;SDS011;37855;53.204;6.568;2023-07-29T09:31:22;5.82;;;2.00;;
51800;SDS011;37855;53.204;6.568;2023-07-29T09:33:49;6.43;;;2.05;;
51800;SDS011;37855;53.204;6.568;2023-07-29T09:36:15;8.55;;;2.47;;
51800;SDS011;37855;53.204;6.568;2023-07-29T09:38:41;6.40;;;1.90;;
51800;SDS011;37855;53.204;6.568;2023-07-29T09:41:07;5.25;;;2.00;;
51800;SDS011;37855;53.204;6.568;2023-07-29T09:43:36;9.00;;;2.42;;
51800;SDS011;37855;53.204;6.568;2023-07-29T09:46:02;6.30;;;1.90;;
51800;SDS011;37855;53.204;6.568;2023-07-29T09:48:37;6.90;;;1.90;;
51800;SDS011;37855;53.204;6.568;2023-07-29T09:51:13;6.95;;;1.77;;
51800;SDS011;37855;53.204;6.568;2023-07-29T09:53:40;5.95;;;1.88;;
51800;SDS011;37855;53.204;6.568;2023-07-29T09:56:13;4.82;;;1.60;;
51800;SDS011;37855;53.204;6.568;2023-07-29T09:58:45;6.75;;;2.00;;
51800;SDS011;37855;53.204;6.568;2023-07-29T10:01:14;6.50;;;1.67;;
51800;SDS011;37855;53.204;6.568;2023-07-29T10:03:40;6.97;;;1.70;;
51800;SDS011;37855;53.204;6.568;2023-07-29T10:06:07;4.93;;;1.83;;
51800;SDS011;37855;53.204;6.568;2023-07-29T10:08:33;7.00;;;1.77;;
51800;SDS011;37855;53.204;6.568;2023-07-29T10:11:05;7.50;;;2.30;;
51800;SDS011;37855;53.204;6.568;2023-07-29T10:13:42;7.68;;;1.90;;
51800;SDS011;37855;53.204;6.568;2023-07-29T10:16:08;7.35;;;1.80;;
51800;SDS011;37855;53.204;6.568;2023-07-29T10:18:36;5.68;;;1.92;;
51800;SDS011;37855;53.204;6.568;2023-07-29T10:21:02;8.30;;;2.10;;
51800;SDS011;37855;53.204;6.568;2023-07-29T10:23:32;6.22;;;1.80;;
51800;SDS011;37855;53.204;6.568;2023-07-29T10:26:07;5.07;;;1.67;;
51800;SDS011;37855;53.204;6.568;2023-07-29T10:28:40;7.97;;;1.70;;
51800;SDS011;37855;53.204;6.568;2023-07-29T10:31:09;8.63;;;1.70;;
51800;SDS011;37855;53.204;6.568;2023-07-29T10:33:36;4.67;;;1.70;;
51800;SDS011;37855;53.204;6.568;2023-07-29T10:36:03;6.53;;;1.70;;
51800;SDS011;37855;53.204;6.568;2023-07-29T10:38:31;5.50;;;1.60;;
51800;SDS011;37855;53.204;6.568;2023-07-29T10:40:57;5.13;;;1.40;;
51800;SDS011;37855;53.204;6.568;2023-07-29T10:45:56;5.47;;;1.30;;
51800;SDS011;37855;53.204;6.568;2023-07-29T10:48:41;6.65;;;1.45;;
51800;SDS011;37855;53.204;6.568;2023-07-29T10:54:01;7.65;;;1.67;;
51800;SDS011;37855;53.204;6.568;2023-07-29T10:56:40;6.03;;;1.70;;
51800;SDS011;37855;53.204;6.568;2023-07-29T11:01:56;8.13;;;2.15;;
51800;SDS011;37855;53.204;6.568;2023-07-29T11:04:25;5.88;;;1.88;;
51800;SDS011;37855;53.204;6.568;2023-07-29T11:09:42;6.05;;;1.90;;
51800;SDS011;37855;53.204;6.568;2023-07-29T11:17:46;6.70;;;1.55;;
51800;SDS011;37855;53.204;6.568;2023-07-29T11:20:14;3.95;;;1.42;;
51800;SDS011;37855;53.204;6.568;2023-07-29T11:22:47;3.90;;;1.45;;
51800;SDS011;37855;53.204;6.568;2023-07-29T11:25:17;6.03;;;1.40;;
51800;SDS011;37855;53.204;6.568;2023-07-29T11:27:44;3.63;;;1.38;;
51800;SDS011;37855;53.204;6.568;2023-07-29T11:30:11;4.55;;;1.52;;
51800;SDS011;37855;53.204;6.568;2023-07-29T11:32:42;4.63;;;1.65;;
51800;SDS011;37855;53.204;6.568;2023-07-29T11:35:10;5.30;;;1.60;;
51800;SDS011;37855;53.204;6.568;2023-07-29T11:37:39;4.13;;;1.87;;
51800;SDS011;37855;53.204;6.568;2023-07-29T11:40:06;4.10;;;1.90;;
51800;SDS011;37855;53.204;6.568;2023-07-29T11:42:33;5.10;;;1.58;;
51800;SDS011;37855;53.204;6.568;2023-07-29T11:45:03;7.47;;;1.70;;
51800;SDS011;37855;53.204;6.568;2023-07-29T11:47:34;7.22;;;2.15;;
51800;SDS011;37855;53.204;6.568;2023-07-29T11:50:02;7.23;;;1.83;;
51800;SDS011;37855;53.204;6.568;2023-07-29T11:52:35;11.45;;;3.20;;
51800;SDS011;37855;53.204;6.568;2023-07-29T11:55:02;11.82;;;3.28;;
51800;SDS011;37855;53.204;6.568;2023-07-29T11:57:33;8.63;;;2.60;;
51800;SDS011;37855;53.204;6.568;2023-07-29T12:00:05;5.47;;;1.80;;
51800;SDS011;37855;53.204;6.568;2023-07-29T12:02:36;8.43;;;2.00;;
51800;SDS011;37855;53.204;6.568;2023-07-29T12:05:07;7.18;;;2.03;;
51800;SDS011;37855;53.204;6.568;2023-07-29T12:07:34;7.35;;;1.90;;
51800;SDS011;37855;53.204;6.568;2023-07-29T12:10:01;5.95;;;1.80;;
51800;SDS011;37855;53.204;6.568;2023-07-29T12:12:30;6.07;;;2.17;;
51800;SDS011;37855;53.204;6.568;2023-07-29T12:14:56;5.37;;;1.90;;
51800;SDS011;37855;53.204;6.568;2023-07-29T12:17:21;7.50;;;2.13;;
51800;SDS011;37855;53.204;6.568;2023-07-29T12:19:47;7.60;;;2.37;;
51800;SDS011;37855;53.204;6.568;2023-07-29T12:22:17;4.93;;;2.20;;
51800;SDS011;37855;53.204;6.568;2023-07-29T12:24:44;11.00;;;2.53;;
51800;SDS011;37855;53.204;6.568;2023-07-29T12:27:13;7.55;;;2.30;;
51800;SDS011;37855;53.204;6.568;2023-07-29T12:29:41;9.57;;;2.53;;
51800;SDS011;37855;53.204;6.568;2023-07-29T12:32:08;7.25;;;2.20;;
51800;SDS011;37855;53.204;6.568;2023-07-29T12:34:35;8.53;;;2.47;;
51800;SDS011;37855;53.204;6.568;2023-07-29T12:37:03;6.43;;;1.92;;
51800;SDS011;37855;53.204;6.568;2023-07-29T12:39:30;6.10;;;1.77;;
51800;SDS011;37855;53.204;6.568;2023-07-29T12:41:58;6.72;;;1.92;;
51800;SDS011;37855;53.204;6.568;2023-07-29T12:44:25;6.60;;;2.20;;
51800;SDS011;37855;53.204;6.568;2023-07-29T12:46:55;6.40;;;2.33;;
51800;SDS011;37855;53.204;6.568;2023-07-29T12:49:21;7.88;;;2.50;;
51800;SDS011;37855;53.204;6.568;2023-07-29T12:51:47;6.40;;;2.10;;
51800;SDS011;37855;53.204;6.568;2023-07-29T12:54:13;6.27;;;1.80;;
51800;SDS011;37855;53.204;6.568;2023-07-29T12:56:39;6.20;;;2.00;;
51800;SDS011;37855;53.204;6.568;2023-07-29T12:59:04;7.53;;;2.00;;
51800;SDS011;37855;53.204;6.568;2023-07-29T13:01:33;8.90;;;2.03;;
51800;SDS011;37855;53.204;6.568;2023-07-29T13:03:59;7.15;;;1.90;;
51800;SDS011;37855;53.204;6.568;2023-07-29T13:06:25;6.10;;;1.60;;
51800;SDS011;37855;53.204;6.568;2023-07-29T13:08:50;5.40;;;1.90;;
51800;SDS011;37855;53.204;6.568;2023-07-29T13:11:16;7.40;;;2.10;;
51800;SDS011;37855;53.204;6.568;2023-07-29T13:13:42;5.32;;;2.05;;
51800;SDS011;37855;53.204;6.568;2023-07-29T13:16:13;8.30;;;2.45;;
51800;SDS011;37855;53.204;6.568;2023-07-29T13:18:39;7.63;;;1.80;;
51800;SDS011;37855;53.204;6.568;2023-07-29T13:21:05;6.22;;;1.65;;
51800;SDS011;37855;53.204;6.568;2023-07-29T13:23:31;7.55;;;1.98;;
51800;SDS011;37855;53.204;6.568;2023-07-29T13:25:58;5.43;;;1.80;;
51800;SDS011;37855;53.204;6.568;2023-07-29T13:28:24;5.82;;;1.95;;
51800;SDS011;37855;53.204;6.568;2023-07-29T13:30:50;7.57;;;2.10;;
51800;SDS011;37855;53.204;6.568;2023-07-29T13:33:15;6.82;;;2.10;;
51800;SDS011;37855;53.204;6.568;2023-07-29T13:35:42;4.90;;;1.70;;
51800;SDS011;37855;53.204;6.568;2023-07-29T13:38:07;6.10;;;1.90;;
51800;SDS011;37855;53.204;6.568;2023-07-29T13:40:34;4.43;;;1.60;;
51800;SDS011;37855;53.204;6.568;2023-07-29T13:43:00;5.35;;;1.85;;
51800;SDS011;37855;53.204;6.568;2023-07-29T13:45:25;6.13;;;1.73;;
51800;SDS011;37855;53.204;6.568;2023-07-29T13:47:51;8.20;;;2.00;;
51800;SDS011;37855;53.204;6.568;2023-07-29T13:50:17;7.88;;;2.20;;
51800;SDS011;37855;53.204;6.568;2023-07-29T13:52:43;6.97;;;1.80;;
51800;SDS011;37855;53.204;6.568;2023-07-29T13:55:09;6.03;;;2.35;;
51800;SDS011;37855;53.204;6.568;2023-07-29T13:57:35;6.70;;;1.83;;
51800;SDS011;37855;53.204;6.568;2023-07-29T14:00:01;7.57;;;2.35;;
51800;SDS011;37855;53.204;6.568;2023-07-29T14:02:27;5.13;;;1.90;;
51800;SDS011;37855;53.204;6.568;2023-07-29T14:04:52;5.83;;;2.27;;
51800;SDS011;37855;53.204;6.568;2023-07-29T14:07:18;5.25;;;2.13;;
51800;SDS011;37855;53.204;6.568;2023-07-29T14:09:44;8.67;;;2.43;;
51800;SDS011;37855;53.204;6.568;2023-07-29T14:12:10;7.97;;;2.10;;
51800;SDS011;37855;53.204;6.568;2023-07-29T14:14:40;6.82;;;2.20;;
51800;SDS011;37855;53.204;6.568;2023-07-29T14:17:06;7.00;;;2.10;;
51800;SDS011;37855;53.204;6.568;2023-07-29T14:19:33;6.88;;;2.60;;
51800;SDS011;37855;53.204;6.568;2023-07-29T14:21:59;8.55;;;2.25;;
51800;SDS011;37855;53.204;6.568;2023-07-29T14:24:25;6.80;;;2.20;;
51800;SDS011;37855;53.204;6.568;2023-07-29T14:26:51;7.78;;;2.65;;
51800;SDS011;37855;53.204;6.568;2023-07-29T14:29:16;5.33;;;2.20;;
51800;SDS011;37855;53.204;6.568;2023-07-29T14:31:42;6.70;;;2.13;;
51800;SDS011;37855;53.204;6.568;2023-07-29T14:34:08;6.93;;;2.40;;
51800;SDS011;37855;53.204;6.568;2023-07-29T14:36:34;8.77;;;2.45;;
51800;SDS011;37855;53.204;6.568;2023-07-29T14:38:59;6.10;;;2.30;;
51800;SDS011;37855;53.204;6.568;2023-07-29T14:41:25;8.10;;;2.47;;
51800;SDS011;37855;53.204;6.568;2023-07-29T14:43:51;7.13;;;2.25;;
51800;SDS011;37855;53.204;6.568;2023-07-29T14:46:17;6.43;;;2.20;;
51800;SDS011;37855;53.204;6.568;2023-07-29T14:48:42;8.02;;;2.10;;
51800;SDS011;37855;53.204;6.568;2023-07-29T14:51:08;8.30;;;2.30;;
51800;SDS011;37855;53.204;6.568;2023-07-29T14:53:34;7.90;;;2.30;;
51800;SDS011;37855;53.204;6.568;2023-07-29T14:55:59;7.50;;;2.30;;
51800;SDS011;37855;53.204;6.568;2023-07-29T14:58:25;9.73;;;2.30;;
51800;SDS011;37855;53.204;6.568;2023-07-29T15:00:54;7.20;;;1.87;;
51800;SDS011;37855;53.204;6.568;2023-07-29T15:03:19;6.63;;;2.10;;